Time;durP1;ratioP1;P1;durP2;ratioP2;P2;SDS_P1;SDS_P2;PMS_P1;PMS_P2;Temp;Humidity;BMP_temperature;BMP_pressure;BME280_temperature;BME280_humidity;BME280_pressure;Samples;Min_cycle;Max_cycle;Signal;HPM_P1;HPM_P2
2023/04/19 00:00:42;;;;;;;7.68;5.63;;;9.20;99.90;;;;;;5135620;27;20035;-58
2023/04/19 00:03:08;;;;;;;9.02;5.68;;;9.10;99.90;;;;;;5135197;27;20055;-58
2023/04/19 00:05:37;;;;;;;9.02;5.95;;;9.00;99.90;;;;;;5135552;27;20031;-59
2023/04/19 00:08:03;;;;;;;8.32;6.13;;;9.10;99.90;;;;;;5135139;27;20031;-59
2023/04/19 00:10:29;;;;;;;8.75;5.82;;;9.00;99.90;;;;;;5135179;27;20068;-59
2023/04/19 00:12:54;;;;;;;9.32;5.70;;;9.00;99.90;;;;;;5116461;27;20058;-59
2023/04/19 00:15:20;;;;;;;7.05;5.90;;;9.00;99.90;;;;;;5135110;27;20039;-59
2023/04/19 00:17:46;;;;;;;9.13;6.22;;;9.00;99.90;;;;;;5135114;27;20039;-59
2023/04/19 00:20:12;;;;;;;9.20;6.38;;;9.00;99.90;;;;;;5134836;27;20038;-59
2023/04/19 00:22:38;;;;;;;8.98;6.35;;;9.00;99.90;;;;;;5134962;27;20071;-60
2023/04/19 00:25:04;;;;;;;10.23;7.05;;;9.00;99.90;;;;;;5134785;27;20586;-59
2023/04/19 00:27:29;;;;;;;8.85;6.13;;;9.00;99.90;;;;;;5134631;27;20461;-59
2023/04/19 00:29:56;;;;;;;10.07;6.57;;;9.00;99.90;;;;;;5134959;27;20091;-60
2023/04/19 00:32:22;;;;;;;10.88;6.43;;;8.90;99.90;;;;;;5137644;27;20038;-59
2023/04/19 00:34:48;;;;;;;9.57;7.05;;;8.60;99.90;;;;;;5155123;27;20043;-58
2023/04/19 00:37:13;;;;;;;15.00;7.32;;;8.90;99.90;;;;;;5155737;27;20034;-59
2023/04/19 00:39:39;;;;;;;10.63;6.85;;;8.90;99.90;;;;;;5136472;27;20460;-59
2023/04/19 00:42:05;;;;;;;10.82;6.63;;;8.90;99.90;;;;;;5155356;27;20523;-59
2023/04/19 00:44:30;;;;;;;10.77;7.35;;;8.80;99.90;;;;;;5155217;27;20038;-59
2023/04/19 00:46:56;;;;;;;9.48;6.53;;;8.80;99.90;;;;;;5155377;27;20372;-59
2023/04/19 00:49:23;;;;;;;9.07;6.60;;;8.80;99.90;;;;;;5136294;27;20030;-59
2023/04/19 00:51:49;;;;;;;11.07;7.32;;;8.80;99.90;;;;;;5136411;27;20046;-59
2023/04/19 00:54:16;;;;;;;11.52;7.28;;;8.80;99.90;;;;;;5154720;27;20045;-59
2023/04/19 00:56:43;;;;;;;11.85;7.78;;;8.70;99.90;;;;;;5155316;27;20030;-59
2023/04/19 00:59:10;;;;;;;8.38;7.47;;;8.70;99.90;;;;;;5154715;27;20495;-59
2023/04/19 01:01:37;;;;;;;11.23;7.43;;;8.60;99.90;;;;;;5135392;27;20444;-59
2023/04/19 01:04:04;;;;;;;9.38;7.13;;;8.70;99.90;;;;;;5154720;27;20041;-59
2023/04/19 01:06:30;;;;;;;13.55;8.00;;;8.70;99.90;;;;;;5155030;27;20038;-58
2023/04/19 01:08:56;;;;;;;11.52;7.90;;;8.70;99.90;;;;;;5154356;27;20070;-59
2023/04/19 01:11:23;;;;;;;12.43;8.30;;;8.70;99.90;;;;;;5154660;27;20469;-59
2023/04/19 01:13:49;;;;;;;14.95;8.88;;;8.70;99.90;;;;;;5154760;27;20039;-59
2023/04/19 01:16:15;;;;;;;11.32;8.13;;;8.70;99.90;;;;;;5154983;27;20035;-59
2023/04/19 01:18:40;;;;;;;9.30;7.60;;;8.60;99.90;;;;;;5154675;27;20039;-59
2023/04/19 01:21:07;;;;;;;12.75;8.35;;;8.60;99.90;;;;;;5154788;27;20064;-59
2023/04/19 01:23:33;;;;;;;11.75;7.97;;;8.60;99.90;;;;;;5136099;27;20126;-59
2023/04/19 01:26:01;;;;;;;12.73;8.48;;;8.50;99.90;;;;;;5154848;27;20047;-59
2023/04/19 01:28:27;;;;;;;15.50;9.20;;;8.50;99.90;;;;;;5135705;27;20087;-59
2023/04/19 01:30:53;;;;;;;11.38;8.65;;;8.40;99.90;;;;;;5154726;27;20043;-59
2023/04/19 01:33:22;;;;;;;10.50;8.15;;;8.40;99.90;;;;;;5135962;27;20085;-59
2023/04/19 01:35:48;;;;;;;12.38;8.57;;;8.40;99.90;;;;;;5153948;27;20476;-59
2023/04/19 01:38:15;;;;;;;12.45;9.05;;;8.40;99.90;;;;;;5154551;27;20038;-59
2023/04/19 01:40:41;;;;;;;15.23;9.10;;;8.30;99.90;;;;;;5135655;27;20061;-59
2023/04/19 01:43:07;;;;;;;12.50;9.70;;;8.30;99.90;;;;;;5135980;27;20165;-60
2023/04/19 01:45:34;;;;;;;12.35;9.50;;;8.20;99.90;;;;;;5135872;27;20047;-59
2023/04/19 01:48:01;;;;;;;14.10;9.52;;;8.20;99.90;;;;;;5154417;27;20161;-59
2023/04/19 01:50:27;;;;;;;16.23;8.95;;;8.20;99.90;;;;;;5154055;27;20120;-59
2023/04/19 01:52:53;;;;;;;13.02;9.27;;;8.20;99.90;;;;;;5154321;27;20046;-58
2023/04/19 01:55:19;;;;;;;12.90;9.35;;;8.10;99.90;;;;;;5135347;27;20035;-59
2023/04/19 01:57:44;;;;;;;13.18;9.00;;;8.10;99.90;;;;;;5153776;27;20039;-58
2023/04/19 02:00:10;;;;;;;13.52;9.43;;;8.00;99.90;;;;;;5153916;27;20038;-58
2023/04/19 02:02:37;;;;;;;14.82;8.68;;;8.00;99.90;;;;;;5153807;27;20513;-58
2023/04/19 02:05:07;;;;;;;13.40;9.05;;;8.10;99.90;;;;;;5135470;27;20095;-58
2023/04/19 02:07:33;;;;;;;12.20;8.18;;;8.10;99.90;;;;;;5154048;27;20094;-59
2023/04/19 02:09:59;;;;;;;11.95;7.97;;;8.10;99.90;;;;;;5153671;27;20539;-59
2023/04/19 02:12:29;;;;;;;12.07;7.82;;;8.10;99.90;;;;;;5153950;27;20114;-58
2023/04/19 02:14:58;;;;;;;12.98;8.85;;;8.00;99.90;;;;;;5153777;27;20051;-59
2023/04/19 02:17:24;;;;;;;;;;;8.10;99.90;;;;;;5158672;27;20367;-59
2023/04/19 02:19:50;;;;;;;13.55;7.85;;;8.00;99.90;;;;;;5158146;27;20224;-58
2023/04/19 02:22:16;;;;;;;12.07;8.40;;;8.10;99.90;;;;;;5139283;27;20042;-58
2023/04/19 02:24:42;;;;;;;10.20;7.65;;;8.10;99.90;;;;;;5158047;27;20168;-59
2023/04/19 02:27:08;;;;;;;11.02;7.20;;;8.00;99.90;;;;;;5157846;27;20121;-58
2023/04/19 02:29:33;;;;;;;11.93;7.57;;;8.00;99.90;;;;;;5157686;27;20050;-59
2023/04/19 02:31:59;;;;;;;11.00;6.63;;;7.90;99.90;;;;;;5157705;27;20070;-58
2023/04/19 02:34:26;;;;;;;9.70;6.63;;;7.90;99.90;;;;;;5157545;27;20035;-59
2023/04/19 02:36:52;;;;;;;11.60;6.78;;;8.00;99.90;;;;;;5157764;27;20030;-59
2023/04/19 02:39:18;;;;;;;9.57;6.82;;;7.90;99.90;;;;;;5157280;27;20043;-59
2023/04/19 02:41:43;;;;;;;9.88;6.50;;;7.90;99.90;;;;;;5157472;27;20404;-59
2023/04/19 02:44:09;;;;;;;10.25;5.88;;;7.80;99.90;;;;;;5157736;27;20042;-59
2023/04/19 02:46:35;;;;;;;8.43;5.75;;;7.90;99.90;;;;;;5157311;27;20043;-58
2023/04/19 02:49:00;;;;;;;7.85;5.60;;;7.80;99.90;;;;;;5157289;27;20083;-58
2023/04/19 02:51:26;;;;;;;11.05;5.57;;;7.80;99.90;;;;;;5138645;27;20047;-59
2023/04/19 02:53:52;;;;;;;7.40;5.57;;;7.80;99.90;;;;;;5157272;27;20035;-58
2023/04/19 02:56:18;;;;;;;9.68;6.07;;;7.70;99.90;;;;;;5157504;27;20163;-58
2023/04/19 02:58:44;;;;;;;8.52;5.68;;;7.70;99.90;;;;;;5157657;27;20046;-58
2023/04/19 03:01:09;;;;;;;10.48;6.85;;;7.70;99.90;;;;;;5138786;27;20053;-59
2023/04/19 03:03:35;;;;;;;11.60;5.72;;;7.60;99.90;;;;;;5157370;27;20377;-59
2023/04/19 03:06:01;;;;;;;8.45;5.80;;;7.60;99.90;;;;;;5156840;27;20049;-58
2023/04/19 03:08:28;;;;;;;9.48;5.90;;;7.60;99.90;;;;;;5156726;27;20473;-58
2023/04/19 03:10:53;;;;;;;9.00;5.60;;;7.60;99.90;;;;;;5138386;27;20058;-59
2023/04/19 03:13:19;;;;;;;8.35;5.68;;;7.60;99.90;;;;;;5156940;27;20039;-58
2023/04/19 03:15:47;;;;;;;9.00;6.00;;;7.60;99.90;;;;;;5157097;27;20035;-58
2023/04/19 03:18:12;;;;;;;8.40;5.97;;;7.50;99.90;;;;;;5156743;27;20449;-59
2023/04/19 03:20:38;;;;;;;10.35;6.15;;;7.60;99.90;;;;;;5157035;27;20038;-58
2023/04/19 03:23:04;;;;;;;10.13;6.03;;;7.50;99.90;;;;;;5156743;27;20030;-59
2023/04/19 03:25:29;;;;;;;11.48;5.97;;;7.50;99.90;;;;;;5156684;27;20042;-59
2023/04/19 03:27:55;;;;;;;6.53;5.38;;;7.50;99.90;;;;;;5156436;27;20508;-59
2023/04/19 03:30:21;;;;;;;8.48;5.57;;;7.40;99.90;;;;;;5156756;27;20433;-58
2023/04/19 03:32:47;;;;;;;10.68;5.30;;;7.40;99.90;;;;;;5156825;27;20038;-58
2023/04/19 03:35:13;;;;;;;6.95;5.15;;;7.40;99.90;;;;;;5156833;27;20468;-59
2023/04/19 03:37:38;;;;;;;9.13;5.78;;;7.30;99.90;;;;;;5156351;27;20038;-59
2023/04/19 03:40:05;;;;;;;10.88;5.75;;;7.30;99.90;;;;;;5156301;27;20054;-58
2023/04/19 03:42:31;;;;;;;9.73;5.05;;;7.30;99.90;;;;;;5156413;27;20488;-59
2023/04/19 03:44:57;;;;;;;9.27;5.85;;;7.30;99.90;;;;;;5156386;27;20094;-59
2023/04/19 03:47:22;;;;;;;8.15;5.10;;;7.20;99.90;;;;;;5137760;27;20078;-59
2023/04/19 03:49:48;;;;;;;8.32;5.90;;;7.20;99.90;;;;;;5156187;27;20106;-59
2023/04/19 03:52:13;;;;;;;7.55;5.38;;;7.20;99.90;;;;;;5137547;27;20043;-57
2023/04/19 03:54:39;;;;;;;10.90;6.00;;;7.20;99.90;;;;;;5156108;27;20034;-57
2023/04/19 03:57:05;;;;;;;13.35;6.15;;;7.10;99.90;;;;;;5156026;27;20043;-58
2023/04/19 03:59:31;;;;;;;8.50;6.03;;;7.10;99.90;;;;;;5156302;27;20086;-58
2023/04/19 04:01:56;;;;;;;11.65;5.95;;;7.10;99.90;;;;;;5156033;27;20400;-58
2023/04/19 04:04:22;;;;;;;7.63;5.25;;;7.10;99.90;;;;;;5156406;27;20045;-58
2023/04/19 04:06:48;;;;;;;6.82;5.10;;;7.00;99.90;;;;;;5137635;27;20445;-58
2023/04/19 04:09:13;;;;;;;8.73;5.45;;;7.00;99.90;;;;;;5155681;27;20031;-58
2023/04/19 04:11:39;;;;;;;9.80;5.03;;;7.00;99.90;;;;;;5156135;27;20042;-58
2023/04/19 04:14:05;;;;;;;8.45;4.95;;;7.00;99.90;;;;;;5156182;27;20043;-58
2023/04/19 04:16:31;;;;;;;9.57;4.85;;;7.00;99.90;;;;;;5156018;27;20027;-58
2023/04/19 04:18:57;;;;;;;10.98;5.00;;;7.00;99.90;;;;;;5155791;27;20123;-58
2023/04/19 04:21:23;;;;;;;8.00;4.72;;;7.00;99.90;;;;;;5155617;27;20030;-57
2023/04/19 04:23:49;;;;;;;5.80;4.63;;;7.00;99.90;;;;;;5155617;27;20038;-58
2023/04/19 04:26:15;;;;;;;8.95;4.88;;;6.90;99.90;;;;;;5155728;27;20045;-57
2023/04/19 04:28:41;;;;;;;5.88;4.45;;;6.90;99.90;;;;;;5137102;27;20125;-58
2023/04/19 04:31:07;;;;;;;8.95;5.28;;;6.90;99.90;;;;;;5155495;27;20078;-58
2023/04/19 04:33:32;;;;;;;5.75;4.43;;;6.80;99.90;;;;;;5155658;27;20062;-57
2023/04/19 04:35:58;;;;;;;6.90;4.72;;;6.80;99.90;;;;;;5155556;27;20038;-58
2023/04/19 04:38:24;;;;;;;6.57;4.68;;;6.80;99.90;;;;;;5155028;27;20042;-58
2023/04/19 04:40:54;;;;;;;8.15;4.43;;;6.80;99.90;;;;;;5155202;27;20098;-58
2023/04/19 04:43:21;;;;;;;9.27;4.50;;;6.70;99.90;;;;;;5155247;27;20511;-57
2023/04/19 04:45:47;;;;;;;6.55;4.10;;;6.70;99.90;;;;;;5155024;27;20035;-58
2023/04/19 04:48:13;;;;;;;10.27;4.97;;;6.70;99.90;;;;;;5155195;27;20380;-57
2023/04/19 04:50:39;;;;;;;9.02;4.35;;;6.70;99.90;;;;;;5155530;27;20049;-58
2023/04/19 04:53:05;;;;;;;7.38;4.47;;;6.70;99.90;;;;;;5136596;27;20350;-58
2023/04/19 04:55:31;;;;;;;5.88;4.43;;;6.70;99.90;;;;;;5155004;27;20377;-57
2023/04/19 04:57:56;;;;;;;11.02;4.28;;;6.70;99.90;;;;;;5155138;27;20043;-58
2023/04/19 05:00:23;;;;;;;6.30;4.43;;;6.80;99.90;;;;;;5155287;27;20043;-58
2023/04/19 05:02:48;;;;;;;7.97;4.75;;;6.80;99.90;;;;;;5154914;27;20040;-58
2023/04/19 05:05:14;;;;;;;8.05;4.35;;;6.80;99.90;;;;;;5154543;27;20043;-58
2023/04/19 05:07:40;;;;;;;7.53;3.65;;;6.90;99.90;;;;;;5154781;27;20070;-58
2023/04/19 05:10:07;;;;;;;6.50;3.97;;;6.90;99.90;;;;;;5154207;27;20035;-58
2023/04/19 05:12:33;;;;;;;7.60;3.65;;;7.00;99.90;;;;;;5136244;27;20480;-59
2023/04/19 05:14:59;;;;;;;7.85;4.25;;;7.10;99.90;;;;;;5154869;27;20034;-58
2023/04/19 05:17:24;;;;;;;5.13;3.70;;;7.10;99.90;;;;;;5135980;27;20050;-58
2023/04/19 05:19:50;;;;;;;7.25;3.80;;;7.10;99.90;;;;;;5154537;27;20034;-58
2023/04/19 05:22:16;;;;;;;7.13;3.60;;;7.20;99.90;;;;;;5154434;27;20034;-58
2023/04/19 05:24:41;;;;;;;8.40;3.75;;;7.30;99.90;;;;;;5154722;27;20426;-58
2023/04/19 05:27:08;;;;;;;4.90;3.72;;;7.40;99.90;;;;;;5154725;27;20050;-58
2023/04/19 05:29:34;;;;;;;10.05;3.55;;;7.50;99.90;;;;;;5154796;27;20137;-57
2023/04/19 05:31:59;;;;;;;6.05;3.70;;;7.60;99.90;;;;;;5154675;27;20126;-57
2023/04/19 05:34:25;;;;;;;5.75;3.70;;;7.60;99.90;;;;;;5154711;27;20392;-58
2023/04/19 05:36:51;;;;;;;6.78;3.42;;;7.70;99.90;;;;;;5154470;27;20042;-58
2023/04/19 05:39:16;;;;;;;6.22;3.53;;;7.80;99.90;;;;;;5154047;27;20053;-58
2023/04/19 05:41:42;;;;;;;9.30;3.65;;;7.80;99.90;;;;;;5154422;27;20057;-58
2023/04/19 05:44:08;;;;;;;9.57;4.15;;;7.90;99.90;;;;;;5135510;27;20185;-58
2023/04/19 05:46:34;;;;;;;5.93;4.10;;;7.90;99.90;;;;;;5154624;27;20092;-58
2023/04/19 05:49:01;;;;;;;6.60;3.42;;;8.00;99.90;;;;;;5135501;27;20034;-57
2023/04/19 05:51:27;;;;;;;5.97;3.60;;;8.10;99.90;;;;;;5154074;27;20039;-58
2023/04/19 05:53:53;;;;;;;4.20;3.15;;;8.20;99.90;;;;;;5154568;27;20392;-58
2023/04/19 05:56:19;;;;;;;5.85;4.13;;;8.20;99.90;;;;;;5135600;27;20451;-59
2023/04/19 05:58:44;;;;;;;6.88;3.58;;;8.30;99.90;;;;;;5135257;27;20070;-58
2023/04/19 06:01:10;;;;;;;6.78;3.67;;;8.30;99.90;;;;;;5153859;27;20058;-58
2023/04/19 06:03:36;;;;;;;7.78;3.38;;;8.40;99.90;;;;;;5153850;27;20034;-58
2023/04/19 06:06:01;;;;;;;8.13;3.70;;;8.50;99.90;;;;;;5153513;27;20034;-58
2023/04/19 06:08:27;;;;;;;4.75;3.40;;;8.60;99.90;;;;;;5153870;27;20034;-58
2023/04/19 06:10:54;;;;;;;7.00;2.85;;;8.60;99.90;;;;;;5153965;27;20047;-59
2023/04/19 06:13:20;;;;;;;6.88;3.05;;;8.80;99.90;;;;;;5153999;27;20039;-59
2023/04/19 06:15:47;;;;;;;4.63;3.22;;;8.90;99.90;;;;;;5153834;27;20067;-59
2023/04/19 06:18:13;;;;;;;3.42;2.65;;;9.10;99.90;;;;;;5153899;27;20061;-59
2023/04/19 06:20:39;;;;;;;5.85;2.97;;;9.20;99.90;;;;;;5153414;27;20039;-59
2023/04/19 06:23:05;;;;;;;7.68;3.05;;;9.10;99.90;;;;;;5135046;27;20043;-59
2023/04/19 06:25:31;;;;;;;5.18;2.65;;;9.10;99.90;;;;;;5153483;27;20043;-59
2023/04/19 06:27:57;;;;;;;5.20;2.65;;;9.20;99.90;;;;;;5153932;27;20428;-59
2023/04/19 06:30:22;;;;;;;8.55;2.97;;;9.30;99.90;;;;;;5154035;27;20049;-59
2023/04/19 06:32:48;;;;;;;4.10;2.50;;;9.40;99.90;;;;;;5153946;27;20030;-59
2023/04/19 06:35:14;;;;;;;3.25;2.70;;;9.50;99.90;;;;;;5135459;27;20396;-59
2023/04/19 06:37:40;;;;;;;4.15;2.53;;;9.80;99.90;;;;;;5153065;27;20070;-59
2023/04/19 06:40:07;;;;;;;8.25;2.80;;;9.90;99.90;;;;;;5152647;27;20082;-59
2023/04/19 06:42:38;;;;;;;4.80;2.80;;;10.10;99.90;;;;;;5152793;27;20050;-58
2023/04/19 06:45:04;;;;;;;5.60;2.65;;;10.10;99.90;;;;;;5135164;27;20041;-58
2023/04/19 06:47:30;;;;;;;4.32;2.85;;;10.10;99.90;;;;;;5153691;27;20465;-59
2023/04/19 06:49:56;;;;;;;5.07;2.85;;;10.20;99.90;;;;;;5153589;27;20061;-59
2023/04/19 06:52:22;;;;;;;6.03;3.00;;;10.40;99.90;;;;;;5153891;27;20456;-59
2023/04/19 06:54:49;;;;;;;4.38;2.25;;;10.70;99.90;;;;;;5153474;27;20046;-59
2023/04/19 06:57:15;;;;;;;7.18;2.20;;;10.70;99.90;;;;;;5153305;27;20422;-58
2023/04/19 06:59:41;;;;;;;4.18;2.13;;;10.80;99.90;;;;;;5153762;27;20039;-59
2023/04/19 07:02:07;;;;;;;3.85;2.10;;;10.80;99.90;;;;;;5152178;27;20046;-59
2023/04/19 07:04:33;;;;;;;6.55;2.20;;;11.10;99.90;;;;;;5156298;27;20076;-59
2023/04/19 07:06:59;;;;;;;6.93;2.50;;;11.20;99.90;;;;;;5157130;27;20410;-59
2023/04/19 07:09:25;;;;;;;7.10;2.20;;;11.40;99.90;;;;;;5156741;27;20042;-59
2023/04/19 07:11:51;;;;;;;3.17;2.10;;;11.70;99.90;;;;;;5138247;27;20042;-59
2023/04/19 07:14:18;;;;;;;3.17;1.70;;;11.40;99.90;;;;;;5157539;27;20038;-59
2023/04/19 07:16:44;;;;;;;5.13;2.20;;;11.80;99.90;;;;;;5156851;27;20476;-60
2023/04/19 07:19:10;;;;;;;4.57;2.45;;;12.00;99.90;;;;;;5157394;27;20095;-59
2023/04/19 07:21:37;;;;;;;3.08;1.70;;;12.10;99.90;;;;;;5157147;27;20046;-60
2023/04/19 07:24:03;;;;;;;2.67;2.00;;;12.60;99.90;;;;;;5156744;27;20484;-59
2023/04/19 07:26:29;;;;;;;3.47;1.75;;;12.50;99.90;;;;;;5157052;27;20091;-60
2023/04/19 07:28:55;;;;;;;2.58;1.67;;;12.40;99.90;;;;;;5156955;27;20042;-57
2023/04/19 07:31:23;;;;;;;2.05;1.40;;;12.50;99.80;;;;;;5157273;27;20476;-57
2023/04/19 07:33:49;;;;;;;4.32;1.77;;;12.60;99.80;;;;;;5137568;27;20053;-60
2023/04/19 07:36:15;;;;;;;3.00;1.58;;;12.50;99.20;;;;;;5136256;27;20118;-58
2023/04/19 07:38:41;;;;;;;3.38;1.70;;;12.80;99.30;;;;;;5135964;27;20047;-58
2023/04/19 07:41:07;;;;;;;3.50;1.90;;;12.70;98.90;;;;;;5135505;27;20092;-58
2023/04/19 07:43:34;;;;;;;6.90;1.60;;;12.90;99.70;;;;;;5135586;27;20088;-59
2023/04/19 07:45:59;;;;;;;2.95;1.50;;;12.80;99.80;;;;;;5135878;27;20070;-58
2023/04/19 07:48:25;;;;;;;4.60;1.67;;;13.30;99.30;;;;;;5135855;27;20460;-58
2023/04/19 07:50:51;;;;;;;4.05;1.70;;;13.30;98.10;;;;;;5135703;27;20035;-58
2023/04/19 07:53:17;;;;;;;5.05;1.55;;;13.40;98.40;;;;;;5117129;27;20126;-58
2023/04/19 07:55:43;;;;;;;2.10;1.58;;;13.90;99.00;;;;;;5135689;27;20031;-59
2023/04/19 07:58:09;;;;;;;4.13;1.88;;;14.00;98.40;;;;;;5135433;27;20092;-59
2023/04/19 08:00:48;;;;;;;2.72;1.50;;;13.90;97.60;;;;;;5136041;27;20569;-58
2023/04/19 08:03:13;;;;;;;3.42;1.90;;;13.70;97.90;;;;;;5152783;27;20050;-58
2023/04/19 08:05:43;;;;;;;2.85;1.60;;;13.60;97.80;;;;;;5155266;27;20043;-58
2023/04/19 08:08:12;;;;;;;2.60;1.60;;;13.80;97.90;;;;;;5126589;27;20503;-58
2023/04/19 08:11:21;;;;;;;4.00;1.60;;;13.60;97.70;;;;;;5099756;27;20031;-58
2023/04/19 08:13:50;;;;;;;2.78;2.20;;;13.70;97.50;;;;;;5014230;28;20099;-58
2023/04/19 08:19:09;;;;;;;8.80;3.05;;;14.10;97.70;;;;;;5031364;28;20045;-58
2023/04/19 08:21:36;;;;;;;1.67;1.20;;;14.10;96.90;;;;;;4998595;28;20060;-59
2023/04/19 08:24:15;;;;;;;4.70;1.45;;;14.20;97.30;;;;;;5015049;28;20041;-59
2023/04/19 08:26:52;;;;;;;4.88;1.63;;;14.20;96.70;;;;;;5015030;28;20037;-58
2023/04/19 08:29:19;;;;;;;5.93;1.85;;;14.10;96.30;;;;;;5030954;28;20140;-59
2023/04/19 08:31:45;;;;;;;1.73;1.35;;;14.20;96.90;;;;;;5012189;28;20177;-59
2023/04/19 08:34:11;;;;;;;3.10;1.58;;;14.20;97.00;;;;;;5031088;28;20037;-58
2023/04/19 08:36:37;;;;;;;4.55;1.23;;;14.10;96.70;;;;;;5030623;28;20053;-59
2023/04/19 08:39:03;;;;;;;6.50;1.42;;;14.20;96.30;;;;;;5031035;28;20095;-59
2023/04/19 08:41:35;;;;;;;3.38;1.50;;;14.50;96.10;;;;;;5030812;28;20065;-59
2023/04/19 08:44:23;;;;;;;2.88;1.55;;;14.40;95.70;;;;;;5014237;28;20045;-59
2023/04/19 08:46:52;;;;;;;3.83;1.70;;;14.40;95.40;;;;;;5014409;28;20047;-59
2023/04/19 08:49:20;;;;;;;4.47;1.38;;;14.60;95.30;;;;;;5043217;28;20176;-59
2023/04/19 08:51:50;;;;;;;5.57;1.30;;;14.80;96.70;;;;;;5055489;28;20152;-59
2023/04/19 08:54:20;;;;;;;5.90;1.80;;;14.90;95.50;;;;;;5057311;28;20125;-59
2023/04/19 08:56:50;;;;;;;2.20;1.67;;;14.70;95.20;;;;;;5140645;27;20042;-59
2023/04/19 08:59:17;;;;;;;5.22;1.58;;;15.10;95.40;;;;;;5136142;27;20038;-59
2023/04/19 09:01:43;;;;;;;6.72;1.70;;;15.00;95.80;;;;;;5135762;27;20036;-59
2023/04/19 09:04:09;;;;;;;1.75;1.35;;;15.50;95.90;;;;;;5136282;27;20129;-59
2023/04/19 09:06:39;;;;;;;3.58;1.40;;;15.70;94.90;;;;;;5154524;27;20038;-59
2023/04/19 09:09:15;;;;;;;1.45;1.35;;;15.50;95.00;;;;;;5154550;27;20376;-59
2023/04/19 09:11:40;;;;;;;3.30;1.30;;;15.50;94.40;;;;;;5135618;27;20042;-58
2023/04/19 09:14:07;;;;;;;5.63;1.65;;;15.60;94.80;;;;;;5135850;27;20034;-59
2023/04/19 09:16:35;;;;;;;2.33;1.60;;;15.80;95.20;;;;;;5154145;27;20127;-60
2023/04/19 09:19:02;;;;;;;3.87;1.30;;;15.80;94.10;;;;;;5135010;27;20046;-60
2023/04/19 09:21:32;;;;;;;3.45;1.45;;;16.10;94.80;;;;;;5153683;27;20038;-60
2023/04/19 09:23:58;;;;;;;3.88;1.38;;;16.00;94.60;;;;;;5153869;27;20058;-59
2023/04/19 09:26:28;;;;;;;6.60;1.80;;;15.80;94.20;;;;;;5153303;27;20049;-59
2023/04/19 09:29:03;;;;;;;3.42;1.15;;;15.70;94.90;;;;;;5153533;27;20038;-60
2023/04/19 09:31:30;;;;;;;2.60;1.42;;;15.90;95.20;;;;;;5153966;27;20113;-60
2023/04/19 09:33:56;;;;;;;2.58;1.80;;;16.10;94.90;;;;;;5153567;27;20555;-59
2023/04/19 09:36:30;;;;;;;4.05;1.50;;;16.50;95.70;;;;;;5153831;27;20084;-59
2023/04/19 09:38:57;;;;;;;6.82;1.75;;;16.20;94.70;;;;;;5153265;27;20125;-59
2023/04/19 09:41:23;;;;;;;4.03;1.55;;;16.10;94.60;;;;;;5153131;27;20059;-59
2023/04/19 09:43:49;;;;;;;4.45;1.60;;;16.20;94.90;;;;;;5154128;27;20091;-60
2023/04/19 09:46:35;;;;;;;2.35;1.30;;;16.50;94.90;;;;;;5153750;27;20051;-59
2023/04/19 09:49:12;;;;;;;7.25;1.55;;;16.30;94.00;;;;;;5153813;27;20039;-59
2023/04/19 09:51:45;;;;;;;2.78;1.17;;;16.40;94.00;;;;;;5153941;27;20035;-59
2023/04/19 09:54:12;;;;;;;5.80;1.42;;;16.20;93.70;;;;;;5153861;27;20514;-59
2023/04/19 09:56:38;;;;;;;9.57;1.90;;;16.30;93.30;;;;;;5153761;27;20043;-59
2023/04/19 09:59:05;;;;;;;5.20;1.88;;;16.10;93.20;;;;;;5154077;27;20122;-59
2023/04/19 10:01:38;;;;;;;3.58;1.55;;;15.90;93.20;;;;;;5135301;27;20149;-59
2023/04/19 10:04:05;;;;;;;3.22;1.40;;;15.90;93.10;;;;;;5153456;27;20041;-59
2023/04/19 10:06:33;;;;;;;3.97;1.50;;;15.90;93.40;;;;;;5153836;27;20038;-59
2023/04/19 10:09:02;;;;;;;4.73;1.23;;;16.00;93.50;;;;;;5153528;27;20053;-59
2023/04/19 10:11:38;;;;;;;2.38;1.25;;;15.90;93.50;;;;;;5153654;27;20070;-60
2023/04/19 10:14:07;;;;;;;3.20;1.48;;;16.10;93.60;;;;;;5153890;27;20031;-59
2023/04/19 10:16:34;;;;;;;5.43;2.33;;;16.10;92.70;;;;;;5153620;27;20045;-60
2023/04/19 10:19:06;;;;;;;3.38;1.30;;;16.10;93.30;;;;;;5135183;27;20389;-59
2023/04/19 10:21:33;;;;;;;2.55;1.75;;;16.30;92.40;;;;;;5153440;27;20039;-60
2023/04/19 10:23:59;;;;;;;4.68;1.00;;;16.20;92.60;;;;;;5153555;27;20049;-59
2023/04/19 10:26:25;;;;;;;7.43;1.17;;;16.40;92.70;;;;;;5153636;27;20508;-59
2023/04/19 10:28:54;;;;;;;2.50;1.25;;;16.60;92.80;;;;;;5134866;27;20115;-59
2023/04/19 10:31:22;;;;;;;2.00;1.13;;;16.60;92.30;;;;;;5153102;27;20034;-59
2023/04/19 10:33:52;;;;;;;3.88;1.08;;;16.40;92.30;;;;;;5153389;27;20067;-60
2023/04/19 10:36:20;;;;;;;4.95;1.17;;;16.60;92.40;;;;;;5153629;27;20081;-59
2023/04/19 10:38:54;;;;;;;1.15;0.95;;;16.60;92.40;;;;;;5157770;27;20038;-58
2023/04/19 10:41:20;;;;;;;2.67;0.93;;;16.40;92.30;;;;;;5157138;27;20058;-59
2023/04/19 10:43:47;;;;;;;6.25;1.20;;;16.50;92.80;;;;;;5138545;27;20050;-59
2023/04/19 10:46:23;;;;;;;4.88;1.20;;;16.40;92.70;;;;;;5157174;27;20510;-60
2023/04/19 10:48:56;;;;;;;4.68;1.02;;;16.50;92.70;;;;;;5156848;27;20043;-60
2023/04/19 10:51:28;;;;;;;5.03;1.90;;;16.50;92.70;;;;;;5157255;27;20038;-59
2023/04/19 10:54:03;;;;;;;2.78;2.00;;;16.60;93.10;;;;;;5157186;27;20031;-58
2023/04/19 10:56:35;;;;;;;2.95;1.50;;;16.90;93.50;;;;;;5138843;27;20049;-59
2023/04/19 10:59:08;;;;;;;3.40;1.52;;;16.90;93.30;;;;;;5157168;27;20038;-59
2023/04/19 11:01:36;;;;;;;3.38;1.40;;;16.80;92.60;;;;;;5157062;27;20053;-58
2023/04/19 11:04:01;;;;;;;4.13;1.55;;;17.10;93.20;;;;;;5156800;27;20043;-59
2023/04/19 11:06:27;;;;;;;2.65;1.20;;;17.00;93.60;;;;;;5143203;27;20084;-59
2023/04/19 11:08:53;;;;;;;2.47;1.08;;;17.00;92.00;;;;;;5135837;27;20209;-59
2023/04/19 11:11:20;;;;;;;2.20;1.13;;;17.00;92.70;;;;;;5135859;27;20031;-59
2023/04/19 11:13:49;;;;;;;2.17;1.13;;;17.00;92.30;;;;;;5117474;27;20118;-59
2023/04/19 11:16:15;;;;;;;4.55;1.27;;;16.90;92.90;;;;;;5117559;27;20385;-59
2023/04/19 11:18:40;;;;;;;1.85;1.15;;;17.10;93.00;;;;;;5136037;27;20039;-58
2023/04/19 11:21:06;;;;;;;3.30;1.13;;;17.00;91.60;;;;;;5135751;27;20476;-59
2023/04/19 11:23:32;;;;;;;6.78;1.80;;;17.10;92.30;;;;;;5135828;27;20396;-59
2023/04/19 11:25:57;;;;;;;4.07;1.20;;;17.30;93.50;;;;;;5116821;27;20047;-59
2023/04/19 11:28:23;;;;;;;3.78;1.40;;;17.20;92.00;;;;;;5135915;27;20362;-59
2023/04/19 11:30:49;;;;;;;2.75;1.40;;;16.90;92.30;;;;;;5135580;27;20038;-59
2023/04/19 11:33:23;;;;;;;8.60;2.00;;;16.90;92.80;;;;;;5135754;27;20500;-59
2023/04/19 11:35:49;;;;;;;7.40;1.63;;;16.90;92.90;;;;;;5135366;27;20062;-60
2023/04/19 11:38:15;;;;;;;5.00;1.30;;;17.10;92.60;;;;;;5135765;27;20139;-59
2023/04/19 11:40:41;;;;;;;7.78;1.70;;;17.40;92.80;;;;;;5135195;27;20127;-59
2023/04/19 11:43:06;;;;;;;5.03;1.58;;;17.30;92.00;;;;;;5135624;27;20113;-59
2023/04/19 11:45:35;;;;;;;2.10;1.23;;;17.70;93.30;;;;;;5135620;27;20054;-59
2023/04/19 11:48:03;;;;;;;2.90;1.20;;;17.30;92.30;;;;;;5135307;27;20117;-60
2023/04/19 11:50:37;;;;;;;6.07;1.80;;;17.60;92.50;;;;;;5117272;27;20430;-58
2023/04/19 11:53:13;;;;;;;5.45;1.75;;;17.70;92.10;;;;;;5135115;27;20077;-59
2023/04/19 11:55:42;;;;;;;5.07;1.02;;;17.80;92.50;;;;;;5135060;27;20096;-59
2023/04/19 11:58:10;;;;;;;7.97;2.05;;;17.60;92.60;;;;;;5116783;27;20035;-59
2023/04/19 12:00:36;;;;;;;4.38;1.58;;;17.40;92.80;;;;;;5134940;27;20400;-59
2023/04/19 12:03:03;;;;;;;1.85;1.63;;;17.40;92.90;;;;;;5135100;27;20123;-60
2023/04/19 12:05:29;;;;;;;3.17;1.70;;;17.40;92.50;;;;;;5135051;27;20035;-58
2023/04/19 12:08:07;;;;;;;2.05;1.48;;;17.20;93.20;;;;;;5135154;27;20384;-58
2023/04/19 12:10:33;;;;;;;8.82;2.08;;;17.40;93.00;;;;;;5136641;27;20426;-59
2023/04/19 12:12:59;;;;;;;2.08;1.58;;;17.20;92.90;;;;;;5155482;27;20035;-59
2023/04/19 12:15:45;;;;;;;5.22;1.60;;;17.40;93.50;;;;;;5155360;27;20042;-59
2023/04/19 12:18:11;;;;;;;3.30;2.33;;;18.20;94.60;;;;;;5134755;27;20031;-60
2023/04/19 12:20:43;;;;;;;6.00;2.17;;;17.80;93.00;;;;;;5134836;27;20043;-59
2023/04/19 12:23:12;;;;;;;4.68;1.67;;;17.50;92.80;;;;;;5116509;27;20050;-59
2023/04/19 12:25:39;;;;;;;3.90;1.90;;;17.30;93.20;;;;;;5134781;27;20035;-59
2023/04/19 12:28:04;;;;;;;7.28;2.00;;;17.70;93.90;;;;;;5134412;27;20480;-59
2023/04/19 12:30:30;;;;;;;2.42;1.73;;;17.90;94.20;;;;;;5134598;27;20046;-59
2023/04/19 12:32:57;;;;;;;5.10;2.20;;;17.90;93.70;;;;;;5134691;27;20039;-59
2023/04/19 12:35:27;;;;;;;2.95;1.92;;;17.40;92.80;;;;;;5134348;27;20491;-59
2023/04/19 12:37:57;;;;;;;3.85;2.22;;;17.60;93.40;;;;;;5134688;27;20054;-59
2023/04/19 12:40:24;;;;;;;3.85;2.08;;;17.50;93.50;;;;;;5134115;27;20051;-59
2023/04/19 12:42:50;;;;;;;4.75;2.50;;;17.80;94.60;;;;;;5134480;27;20047;-59
2023/04/19 12:45:17;;;;;;;5.40;2.17;;;17.80;94.00;;;;;;5134236;27;20168;-59
2023/04/19 12:47:45;;;;;;;2.95;2.05;;;17.20;93.70;;;;;;5134185;27;20043;-59
2023/04/19 12:50:12;;;;;;;2.47;2.22;;;17.40;93.80;;;;;;5134144;27;20058;-59
2023/04/19 12:52:38;;;;;;;5.30;2.20;;;17.30;94.10;;;;;;5134195;27;20050;-60